Date,TemperatureHighF,TemperatureAvgF,TemperatureLowF,DewpointHighF,DewpointAvgF,DewpointLowF,HumidityHigh,HumidityAvg,HumidityLow,PressureMaxIn,PressureMinIn,WindSpeedMaxMPH,WindSpeedAvgMPH,GustSpeedMaxMPH,PrecipitationSumIn
2013-3-1,44,39,34,31,29,26,83,69,54,29.79,29.61,6,2,11,0.00
2013-3-2,39,34,30,27,25,23,86,68,57,29.80,29.71,9,2,13,0.00
2013-3-3,38,31,28,23,20,17,75,62,50,29.79,29.68,10,2,16,0.00
2013-3-4,40,33,26,21,19,15,71,58,46,29.93,29.79,13,2,17,0.00
2013-3-5,49,38,30,29,25,21,72,59,43,30.03,29.93,11,1,12,0.00
2013-3-6,42,39,36,35,32,28,84,74,64,29.98,29.85,14,4,29,0.00
2013-3-7,38,36,32,35,30,27,94,81,66,30.09,29.93,8,2,18,0.14
2013-3-8,40,34,30,35,31,29,94,89,70,30.20,30.02,6,1,10,0.53
2013-3-9,56,41,32,29,24,18,77,55,23,30.33,30.19,8,1,14,0.03
2013-3-10,49,38,29,36,32,24,96,79,59,30.40,30.31,4,1,7,0.00
2013-3-11,55,45,37,47,41,34,93,87,67,30.33,30.09,4,0,7,0.00
2013-3-12,58,51,43,56,49,37,98,91,76,30.09,29.66,7,1,15,0.90
2013-3-13,51,42,34,37,30,24,91,65,37,29.90,29.80,12,1,12,0.00
2013-3-14,41,34,28,26,14,7,66,44,26,29.98,29.86,14,4,18,0.00
2013-3-15,46,37,28,31,21,11,64,51,41,30.00,29.72,12,2,14,0.00
2013-3-16,41,35,32,31,26,20,89,72,51,29.93,29.79,4,0,9,0.02
2013-3-17,37,33,28,30,19,15,87,59,42,30.32,29.93,6,2,10,0.00
2013-3-18,36,30,26,31,19,9,94,66,48,30.41,30.03,5,1,10,0.00
2013-3-19,47,38,32,36,33,21,95,85,52,30.01,29.71,8,2,13,0.55
2013-3-20,45,38,30,22,20,17,66,50,35,29.89,29.79,10,2,16,0.00
2013-3-21,39,34,29,28,18,12,89,54,36,29.84,29.64,6,2,12,0.00
2013-3-22,41,33,26,23,18,13,71,54,41,29.89,29.75,8,2,14,0.00
2013-3-23,45,38,31,23,20,17,68,51,36,29.95,29.83,9,2,19,0.00
2013-3-24,47,38,31,28,22,19,63,52,39,29.96,29.71,6,1,11,0.00
2013-3-25,39,37,34,35,30,25,92,77,57,29.71,29.48,11,1,14,0.13
2013-3-26,51,42,34,32,29,25,87,64,39,29.87,29.60,11,1,11,0.00
2013-3-27,52,42,34,31,27,21,72,56,32,29.99,29.87,9,2,14,0.00
2013-3-28,50,43,36,34,30,29,79,63,47,30.11,29.97,8,2,10,0.00
2013-3-29,54,45,35,31,29,26,77,55,36,30.15,30.06,9,1,12,0.00
2013-3-30,59,46,34,32,26,14,81,51,18,30.18,30.06,7,1,11,0.00
2013-3-31,56,44,31,44,34,25,96,70,43,30.13,29.69,4,1,10,0.20